createdAt,value
2024-01-25T00:00:01.264Z,8.40
2024-01-25T00:03:03.063Z,8.20
2024-01-25T00:06:07.732Z,8.20
2024-01-25T00:09:10.412Z,8.10
2024-01-25T00:12:12.172Z,8.10
2024-01-25T00:15:15.057Z,8.10
2024-01-25T00:18:16.782Z,8.10
2024-01-25T00:21:19.255Z,8.10
2024-01-25T00:24:20.965Z,8.10
2024-01-25T00:27:23.643Z,8.30
2024-01-25T00:30:25.367Z,8.40
2024-01-25T00:33:28.446Z,8.40
2024-01-25T00:36:30.600Z,8.50
2024-01-25T00:39:33.677Z,8.50
2024-01-25T00:42:42.514Z,8.50
2024-01-25T00:45:45.211Z,8.60
2024-01-25T00:48:47.442Z,8.60
2024-01-25T00:51:52.184Z,8.50
2024-01-25T00:54:54.185Z,8.50
2024-01-25T00:57:57.475Z,8.50
2024-01-25T01:00:59.693Z,8.60
2024-01-25T01:04:02.417Z,8.80
2024-01-25T01:07:05.046Z,8.70
2024-01-25T01:10:08.847Z,8.60
2024-01-25T01:13:10.646Z,8.60
2024-01-25T01:16:13.823Z,8.50
2024-01-25T01:19:15.738Z,8.50
2024-01-25T01:22:18.669Z,8.60
2024-01-25T01:25:20.551Z,8.60
2024-01-25T01:28:23.539Z,8.60
2024-01-25T01:31:25.358Z,8.50
2024-01-25T01:34:27.565Z,8.30
2024-01-25T01:37:29.335Z,8.40
2024-01-25T01:40:31.664Z,8.40
2024-01-25T01:43:33.355Z,8.50
2024-01-25T01:46:38.400Z,8.40
2024-01-25T01:49:40.356Z,8.30
2024-01-25T01:52:43.541Z,8.40
2024-01-25T01:55:45.253Z,8.40
2024-01-25T01:58:49.194Z,8.20
2024-01-25T02:01:51.430Z,8.20
2024-01-25T02:04:54.828Z,8.10
2024-01-25T02:07:56.647Z,8.10
2024-01-25T02:10:58.892Z,8.20
2024-01-25T02:14:01.131Z,8.30
2024-01-25T02:17:03.448Z,8.20
2024-01-25T02:20:06.038Z,8.10
2024-01-25T02:23:08.514Z,8.30
2024-01-25T02:26:10.248Z,8.40
2024-01-25T02:29:12.861Z,8.30
2024-01-25T02:32:14.533Z,8.10
2024-01-25T02:35:17.357Z,8.00
2024-01-25T02:38:19.172Z,8.00
2024-01-25T02:41:21.446Z,8.00
2024-01-25T02:44:23.129Z,8.10
2024-01-25T02:47:26.118Z,8.30
2024-01-25T02:50:27.887Z,8.10
2024-01-25T02:53:30.228Z,8.10
2024-01-25T02:56:31.859Z,8.20
2024-01-25T02:59:34.130Z,8.20
2024-01-25T03:02:35.789Z,8.10
2024-01-25T03:05:38.190Z,8.10
2024-01-25T03:08:39.892Z,8.20
2024-01-25T03:11:42.424Z,8.20
2024-01-25T03:14:44.121Z,8.10
2024-01-25T03:17:46.842Z,8.10
2024-01-25T03:20:48.544Z,8.10
2024-01-25T03:23:51.045Z,8.20
2024-01-25T03:26:52.758Z,8.20
2024-01-25T03:29:55.044Z,8.30
2024-01-25T03:32:56.745Z,8.30
2024-01-25T03:36:03.831Z,8.20
2024-01-25T03:39:05.518Z,8.20
2024-01-25T03:42:07.771Z,8.30
2024-01-25T03:45:09.673Z,8.20
2024-01-25T03:48:11.998Z,8.30
2024-01-25T03:51:13.827Z,8.30
2024-01-25T03:54:16.584Z,8.30
2024-01-25T03:57:18.328Z,8.30
2024-01-25T04:00:21.186Z,8.20
2024-01-25T04:03:23.055Z,8.30
2024-01-25T04:06:26.004Z,8.10
2024-01-25T04:09:27.698Z,8.20
2024-01-25T04:12:29.872Z,8.20
2024-01-25T04:15:31.854Z,8.20
2024-01-25T04:18:34.753Z,8.00
2024-01-25T04:21:38.702Z,8.00
2024-01-25T04:24:40.502Z,8.00
2024-01-25T04:27:42.288Z,8.00
2024-01-25T04:30:45.080Z,8.20
2024-01-25T04:33:48.911Z,8.20
2024-01-25T04:36:52.242Z,8.20
2024-01-25T04:39:53.943Z,8.10
2024-01-25T04:42:56.219Z,8.10
2024-01-25T04:45:58.001Z,8.00
2024-01-25T04:49:00.737Z,8.00
2024-01-25T04:52:02.823Z,8.00
2024-01-25T04:55:05.406Z,8.00
2024-01-25T04:58:07.109Z,8.00
2024-01-25T05:01:09.967Z,8.00
2024-01-25T05:04:11.879Z,7.90
2024-01-25T05:07:14.049Z,8.00
2024-01-25T05:10:15.937Z,8.10
2024-01-25T05:13:18.053Z,8.10
2024-01-25T05:16:19.794Z,8.20
2024-01-25T05:19:22.205Z,8.20
2024-01-25T05:22:24.086Z,8.20
2024-01-25T05:25:26.682Z,8.30
2024-01-25T05:28:28.446Z,8.30
2024-01-25T05:31:30.561Z,8.30
2024-01-25T05:34:32.493Z,8.30
2024-01-25T05:37:34.567Z,8.40
2024-01-25T05:40:36.253Z,8.40
2024-01-25T05:43:38.661Z,8.30
2024-01-25T05:46:40.366Z,8.00
2024-01-25T05:49:42.473Z,7.80
2024-01-25T05:52:44.253Z,7.60
2024-01-25T05:55:46.498Z,7.60
2024-01-25T05:58:48.165Z,7.50
2024-01-25T06:01:50.269Z,7.40
2024-01-25T06:04:52.625Z,7.50
2024-01-25T06:07:54.688Z,7.70
2024-01-25T06:10:56.532Z,7.50
2024-01-25T06:13:58.557Z,7.50
2024-01-25T06:17:00.312Z,7.50
2024-01-25T06:20:03.951Z,7.60
2024-01-25T06:23:05.881Z,7.60
2024-01-25T06:26:08.011Z,7.50
2024-01-25T06:29:09.764Z,7.40
2024-01-25T06:32:16.396Z,7.30
2024-01-25T06:35:24.443Z,7.30
2024-01-25T06:38:26.496Z,7.20
2024-01-25T06:41:28.148Z,7.30
2024-01-25T06:44:30.295Z,7.30
2024-01-25T06:47:32.045Z,7.20
2024-01-25T06:50:34.194Z,7.20
2024-01-25T06:53:35.987Z,7.20
2024-01-25T06:56:37.645Z,7.10
2024-01-25T06:59:39.286Z,7.00
2024-01-25T07:02:41.290Z,7.10
2024-01-25T07:05:43.437Z,7.00
2024-01-25T07:08:46.185Z,7.10
2024-01-25T07:11:47.906Z,7.00
2024-01-25T07:14:49.939Z,7.00
2024-01-25T07:17:51.620Z,6.80
2024-01-25T07:20:53.616Z,6.90
2024-01-25T07:23:55.254Z,7.00
2024-01-25T07:26:57.259Z,7.00
2024-01-25T07:29:59.006Z,7.00
2024-01-25T07:33:01.110Z,7.10
2024-01-25T07:36:02.834Z,7.20
2024-01-25T07:39:04.825Z,7.50
2024-01-25T07:42:06.532Z,7.60
2024-01-25T07:45:09.193Z,7.80
2024-01-25T07:48:15.137Z,7.80
2024-01-25T07:51:19.448Z,8.00
2024-01-25T07:54:21.574Z,8.20
2024-01-25T07:57:23.586Z,8.30
2024-01-25T08:00:25.214Z,8.40
2024-01-25T08:03:26.887Z,8.40
2024-01-25T08:06:28.631Z,8.40
2024-01-25T08:09:30.708Z,8.40
2024-01-25T08:12:32.440Z,8.50
2024-01-25T08:15:34.615Z,8.60
2024-01-25T08:18:36.397Z,8.60
2024-01-25T08:21:38.824Z,8.60
2024-01-25T08:24:41.184Z,8.50
2024-01-25T08:27:43.218Z,8.40
2024-01-25T08:30:45.103Z,8.20
2024-01-25T08:33:47.894Z,8.20
2024-01-25T08:36:49.803Z,8.30
2024-01-25T08:39:51.977Z,8.40
2024-01-25T08:42:53.826Z,8.50
2024-01-25T08:45:55.822Z,8.50
2024-01-25T08:48:57.649Z,8.70
2024-01-25T08:51:59.743Z,8.50
2024-01-25T08:55:01.464Z,8.80
2024-01-25T08:58:03.231Z,9.10
2024-01-25T09:01:05.217Z,9.30
2024-01-25T09:04:07.358Z,9.40
2024-01-25T09:07:09.137Z,9.50
2024-01-25T09:10:11.475Z,9.50
2024-01-25T09:13:13.199Z,9.50
2024-01-25T09:16:17.222Z,9.50
2024-01-25T09:19:19.194Z,9.60
2024-01-25T09:22:21.304Z,9.60
2024-01-25T09:25:23.792Z,9.60
2024-01-25T09:28:25.742Z,9.70
2024-01-25T09:31:27.663Z,9.80
2024-01-25T09:34:29.811Z,9.80
2024-01-25T09:37:34.065Z,9.80
2024-01-25T09:40:36.640Z,9.60
2024-01-25T09:43:38.490Z,9.60
2024-01-25T09:46:42.717Z,9.70
2024-01-25T09:49:44.494Z,9.80
2024-01-25T09:52:55.062Z,10.10
2024-01-25T09:56:06.649Z,10.30
2024-01-25T09:59:09.944Z,10.40
2024-01-25T10:02:12.543Z,10.50
2024-01-25T10:05:15.061Z,10.70
2024-01-25T10:08:17.116Z,10.70
2024-01-25T10:11:19.234Z,10.70
2024-01-25T10:14:21.166Z,10.70
2024-01-25T10:17:23.261Z,10.80
2024-01-25T10:20:26.225Z,10.90
2024-01-25T10:23:30.270Z,10.90
2024-01-25T10:26:35.192Z,10.60
2024-01-25T10:29:37.346Z,10.60
2024-01-25T10:32:41.902Z,10.50
2024-01-25T10:35:44.852Z,10.40
2024-01-25T10:38:49.465Z,10.20
2024-01-25T10:41:52.712Z,10.30
2024-01-25T10:44:55.700Z,10.20
2024-01-25T10:47:58.163Z,10.30
2024-01-25T10:51:00.419Z,10.30
2024-01-25T10:54:02.556Z,10.20
2024-01-25T10:57:06.139Z,10.30
2024-01-25T11:03:36.059Z,10.40
2024-01-25T11:06:38.324Z,10.50
2024-01-25T11:09:40.474Z,10.50
2024-01-25T11:13:02.157Z,10.60
2024-01-25T11:16:18.268Z,10.70
2024-01-25T11:19:23.503Z,10.60
2024-01-25T11:22:36.088Z,10.50
2024-01-25T11:25:39.378Z,10.60
2024-01-25T11:28:41.154Z,10.80
2024-01-25T11:31:47.687Z,11.30
2024-01-25T11:34:59.941Z,11.50
2024-01-25T11:38:02.407Z,11.40
2024-01-25T11:41:04.211Z,11.50
2024-01-25T11:44:06.355Z,11.30
2024-01-25T11:47:08.081Z,11.40
2024-01-25T11:50:12.368Z,11.40
2024-01-25T11:53:14.256Z,11.20
2024-01-25T11:56:21.660Z,11.30
2024-01-25T11:59:23.477Z,11.40
2024-01-25T12:02:25.896Z,11.50
2024-01-25T12:05:27.960Z,11.70
2024-01-25T12:08:29.879Z,11.40
2024-01-25T12:11:31.850Z,11.40
2024-01-25T12:14:33.881Z,11.40
2024-01-25T12:17:36.251Z,11.70
2024-01-25T12:23:41.195Z,12.10
2024-01-25T12:26:43.527Z,11.70
2024-01-25T12:29:45.175Z,11.60
2024-01-25T12:32:50.029Z,11.70
2024-01-25T12:35:52.083Z,11.60
2024-01-25T12:38:54.223Z,11.70
2024-01-25T12:41:56.096Z,11.70
2024-01-25T12:44:58.137Z,11.60
2024-01-25T12:47:59.928Z,11.60
2024-01-25T12:51:02.969Z,12.00
2024-01-25T12:54:05.301Z,12.20
2024-01-25T12:57:07.770Z,12.30
2024-01-25T13:00:10.019Z,12.20
2024-01-25T13:03:12.589Z,12.00
2024-01-25T13:06:15.045Z,11.60
2024-01-25T13:09:16.855Z,11.60
2024-01-25T13:12:19.514Z,11.80
2024-01-25T13:15:21.234Z,12.00
2024-01-25T13:18:23.454Z,11.90
2024-01-25T13:21:25.681Z,11.80
2024-01-25T13:24:27.373Z,11.70
2024-01-25T13:27:29.838Z,11.60
2024-01-25T13:30:31.592Z,11.50
2024-01-25T13:33:34.032Z,11.50
2024-01-25T13:36:36.332Z,11.50
2024-01-25T13:39:38.387Z,11.50
2024-01-25T13:42:40.829Z,11.70
2024-01-25T13:45:42.612Z,11.80
2024-01-25T13:48:44.662Z,11.90
2024-01-25T13:51:49.072Z,12.20
2024-01-25T13:54:51.446Z,12.30
2024-01-25T13:57:53.771Z,12.40
2024-01-25T14:00:55.627Z,12.20
2024-01-25T14:03:58.485Z,12.40
2024-01-25T14:07:00.738Z,12.20
2024-01-25T14:10:02.635Z,12.00
2024-01-25T14:13:05.147Z,11.90
2024-01-25T14:16:07.242Z,11.70
2024-01-25T14:19:09.797Z,11.80
2024-01-25T14:22:22.500Z,11.70
2024-01-25T14:25:31.864Z,11.60
2024-01-25T14:28:34.512Z,11.60
2024-01-25T14:31:37.162Z,12.00
2024-01-25T14:34:39.655Z,12.10
2024-01-25T14:37:41.897Z,11.70
2024-01-25T14:40:53.643Z,11.40
2024-01-25T14:44:01.596Z,11.10
2024-01-25T14:47:04.043Z,10.80
2024-01-25T14:50:06.722Z,10.70
2024-01-25T14:53:08.944Z,10.50
2024-01-25T14:56:10.589Z,10.40
2024-01-25T14:59:13.572Z,10.40
2024-01-25T15:02:15.779Z,10.20
2024-01-25T15:05:17.517Z,10.20
2024-01-25T15:08:20.294Z,10.30
2024-01-25T15:11:22.123Z,10.40
2024-01-25T15:14:25.091Z,10.20
2024-01-25T15:17:27.423Z,9.70
2024-01-25T15:20:29.102Z,9.30
2024-01-25T15:23:31.681Z,9.30
2024-01-25T15:26:33.470Z,9.10
2024-01-25T15:29:35.140Z,8.90
2024-01-25T15:32:39.106Z,8.70
2024-01-25T15:35:40.951Z,8.40
2024-01-25T15:38:42.693Z,8.30
2024-01-25T15:41:45.172Z,8.20
2024-01-25T15:44:46.867Z,8.10
2024-01-25T15:47:48.562Z,7.90
2024-01-25T15:50:50.299Z,7.70
2024-01-25T15:53:53.326Z,7.60
2024-01-25T15:56:55.431Z,7.40
2024-01-25T15:59:57.164Z,7.50
2024-01-25T16:02:59.749Z,7.30
2024-01-25T16:06:01.674Z,7.10
2024-01-25T16:09:04.535Z,7.10
2024-01-25T16:12:10.873Z,7.00
2024-01-25T16:15:12.720Z,7.00
2024-01-25T16:18:15.704Z,7.00
2024-01-25T16:21:17.962Z,6.90
2024-01-25T16:24:19.949Z,7.10
2024-01-25T16:27:22.143Z,7.00
2024-01-25T16:30:23.832Z,6.80
2024-01-25T16:33:26.870Z,6.70
2024-01-25T16:36:28.702Z,6.70
2024-01-25T16:39:30.421Z,6.60
2024-01-25T16:42:33.329Z,6.50
2024-01-25T16:45:35.700Z,6.30
2024-01-25T16:48:37.520Z,6.10
2024-01-25T16:51:40.058Z,5.90
2024-01-25T16:54:41.783Z,5.80
2024-01-25T16:57:44.441Z,5.80
2024-01-25T17:00:46.930Z,5.90
2024-01-25T17:03:48.752Z,5.80
2024-01-25T17:06:51.559Z,5.70
2024-01-25T17:09:53.848Z,5.60
2024-01-25T17:12:55.589Z,5.60
2024-01-25T17:15:57.851Z,5.50
2024-01-25T17:18:59.914Z,5.40
2024-01-25T17:22:03.114Z,5.20
2024-01-25T17:25:05.885Z,5.10
2024-01-25T17:28:07.571Z,5.00
2024-01-25T17:31:10.034Z,4.90
2024-01-25T17:34:13.640Z,4.90
2024-01-25T17:37:17.785Z,5.00
2024-01-25T17:40:20.034Z,5.10
2024-01-25T17:43:25.405Z,5.10
2024-01-25T17:46:28.472Z,5.10
2024-01-25T17:49:30.806Z,5.00
2024-01-25T17:52:32.505Z,4.90
2024-01-25T17:55:35.026Z,4.80
2024-01-25T17:58:36.988Z,4.80
2024-01-25T18:01:38.754Z,4.80
2024-01-25T18:04:41.550Z,4.80
2024-01-25T18:07:43.203Z,4.80
2024-01-25T18:10:45.683Z,4.70
2024-01-25T18:13:47.757Z,4.50
2024-01-25T18:16:49.393Z,4.40
2024-01-25T18:19:52.053Z,4.40
2024-01-25T18:22:53.751Z,4.30
2024-01-25T18:25:56.693Z,4.20
2024-01-25T18:28:58.983Z,4.20
2024-01-25T18:32:00.653Z,4.10
2024-01-25T18:35:03.324Z,4.10
2024-01-25T18:38:05.322Z,4.00
2024-01-25T18:41:06.983Z,3.90
2024-01-25T18:44:09.444Z,3.90
2024-01-25T18:47:11.107Z,3.80
2024-01-25T18:50:12.766Z,3.70
2024-01-25T18:53:15.414Z,3.60
2024-01-25T18:56:26.677Z,3.60
2024-01-25T18:59:31.823Z,3.50
2024-01-25T19:02:34.263Z,3.50
2024-01-25T19:05:36.238Z,3.40
2024-01-25T19:08:39.166Z,3.40
2024-01-25T19:11:40.827Z,3.30
2024-01-25T19:14:43.037Z,3.30
2024-01-25T19:17:46.555Z,3.30
2024-01-25T19:20:48.300Z,3.30
2024-01-25T19:23:50.859Z,3.40
2024-01-25T19:26:53.627Z,3.40
2024-01-25T19:29:55.283Z,3.50
2024-01-25T19:32:57.873Z,3.60
2024-01-25T19:35:59.622Z,3.70
2024-01-25T19:39:01.588Z,3.80
2024-01-25T19:42:03.925Z,3.80
2024-01-25T19:45:05.816Z,3.90
2024-01-25T19:48:08.590Z,3.90
2024-01-25T19:51:10.919Z,3.90
2024-01-25T19:54:12.574Z,3.90
2024-01-25T19:57:16.482Z,3.90
2024-01-25T20:00:18.638Z,3.90
2024-01-25T20:03:22.450Z,3.90
2024-01-25T20:06:27.453Z,4.00
2024-01-25T20:09:29.444Z,4.00
2024-01-25T20:12:32.837Z,4.00
2024-01-25T20:15:34.860Z,4.00
2024-01-25T20:18:38.043Z,4.00
2024-01-25T20:21:40.292Z,4.10
2024-01-25T20:24:42.016Z,4.10
2024-01-25T20:27:44.748Z,4.10
2024-01-25T20:30:47.071Z,4.10
2024-01-25T20:33:48.832Z,4.20
2024-01-25T20:36:51.326Z,4.20
2024-01-25T20:39:53.442Z,4.20
2024-01-25T20:42:56.419Z,4.20
2024-01-25T20:45:58.566Z,4.10
2024-01-25T20:49:00.660Z,4.20
2024-01-25T20:52:03.216Z,4.20
2024-01-25T20:55:06.507Z,4.20
2024-01-25T20:58:08.182Z,4.20
2024-01-25T21:01:10.785Z,4.20
2024-01-25T21:04:12.740Z,4.20
2024-01-25T21:07:16.684Z,4.20
2024-01-25T21:10:19.592Z,4.20
2024-01-25T21:13:21.494Z,4.20
2024-01-25T21:16:25.534Z,4.30
2024-01-25T21:19:27.568Z,4.30
2024-01-25T21:22:30.147Z,4.30
2024-01-25T21:25:32.395Z,4.30
2024-01-25T21:28:34.090Z,4.30
2024-01-25T21:31:36.386Z,4.30
2024-01-25T21:34:38.600Z,4.30
2024-01-25T21:37:40.296Z,4.30
2024-01-25T21:40:42.479Z,4.30
2024-01-25T21:43:44.134Z,4.30
2024-01-25T21:46:47.095Z,4.40
2024-01-25T21:49:49.292Z,4.30
2024-01-25T21:52:51.252Z,4.30
2024-01-25T21:55:54.697Z,4.30
2024-01-25T21:58:56.956Z,4.30
2024-01-25T22:01:58.658Z,4.30
2024-01-25T22:05:01.325Z,4.30
2024-01-25T22:08:03.784Z,4.30
2024-01-25T22:11:05.457Z,4.20
2024-01-25T22:14:07.489Z,4.30
2024-01-25T22:17:09.132Z,4.30
2024-01-25T22:20:11.554Z,4.30
2024-01-25T22:23:13.286Z,4.30
2024-01-25T22:26:16.453Z,4.30
2024-01-25T22:29:18.185Z,4.30
2024-01-25T22:32:19.840Z,4.30
2024-01-25T22:35:22.467Z,4.20
2024-01-25T22:38:24.108Z,4.20
2024-01-25T22:41:26.636Z,4.10
2024-01-25T22:44:28.253Z,4.10
2024-01-25T22:47:30.393Z,4.10
2024-01-25T22:50:32.084Z,4.10
2024-01-25T22:53:33.721Z,4.10
2024-01-25T22:56:54.899Z,4.10
2024-01-25T22:59:57.162Z,4.10
2024-01-25T23:02:59.153Z,4.10
2024-01-25T23:06:01.840Z,4.10
2024-01-25T23:09:03.853Z,4.10
2024-01-25T23:12:06.644Z,4.10
2024-01-25T23:15:09.728Z,4.10
2024-01-25T23:18:11.470Z,4.20
2024-01-25T23:21:14.183Z,4.10
2024-01-25T23:24:15.820Z,4.10
2024-01-25T23:27:18.427Z,4.10
2024-01-25T23:30:20.655Z,4.10
2024-01-25T23:33:22.646Z,4.10
2024-01-25T23:36:25.619Z,4.20
2024-01-25T23:39:27.342Z,4.20
2024-01-25T23:42:30.149Z,4.30
2024-01-25T23:45:32.781Z,4.30
2024-01-25T23:48:34.789Z,4.20
2024-01-25T23:51:42.111Z,4.30
2024-01-25T23:54:44.159Z,4.30
2024-01-25T23:57:47.121Z,4.30
